sensor_id;sensor_type;location;lat;lon;timestamp;P1;P2;P0
77516;PMS7003;68414;53.946;27.634;2023-03-17T00:00:45;16.383333;13.683333;8.383333
77516;PMS7003;68414;53.946;27.634;2023-03-17T00:01:43;14.650000;13.983334;7.833333
77516;PMS7003;68414;53.946;27.634;2023-03-17T00:02:44;13.666667;12.916667;7.666667
77516;PMS7003;68414;53.946;27.634;2023-03-17T00:03:44;15.850000;14.650000;8.516666
77516;PMS7003;68414;53.946;27.634;2023-03-17T00:04:43;12.566667;11.533334;7.150000
77516;PMS7003;68414;53.946;27.634;2023-03-17T00:05:43;13.433333;11.700000;7.416667
77516;PMS7003;68414;53.946;27.634;2023-03-17T00:06:44;12.366667;11.650000;6.550000
77516;PMS7003;68414;53.946;27.634;2023-03-17T00:07:45;12.316667;10.750000;6.633333
77516;PMS7003;68414;53.946;27.634;2023-03-17T00:08:44;15.183333;11.350000;6.966667
77516;PMS7003;68414;53.946;27.634;2023-03-17T00:09:43;10.883333;10.533334;6.933333
77516;PMS7003;68414;53.946;27.634;2023-03-17T00:10:43;12.700000;11.250000;6.966667
77516;PMS7003;68414;53.946;27.634;2023-03-17T00:11:44;10.400000;9.800000;6.616667
77516;PMS7003;68414;53.946;27.634;2023-03-17T00:12:44;10.883333;10.466666;7.200000
77516;PMS7003;68414;53.946;27.634;2023-03-17T00:13:44;14.166667;10.833333;7.100000
77516;PMS7003;68414;53.946;27.634;2023-03-17T00:14:43;11.533334;10.483334;6.766667
77516;PMS7003;68414;53.946;27.634;2023-03-17T00:16:46;12.416667;11.116667;6.033333
77516;PMS7003;68414;53.946;27.634;2023-03-17T00:17:43;11.100000;9.633333;6.600000
77516;PMS7003;68414;53.946;27.634;2023-03-17T00:18:43;10.250000;9.533334;6.950000
77516;PMS7003;68414;53.946;27.634;2023-03-17T00:19:43;12.100000;10.566667;7.750000
77516;PMS7003;68414;53.946;27.634;2023-03-17T00:20:44;15.400000;13.166667;8.950000
77516;PMS7003;68414;53.946;27.634;2023-03-17T00:21:43;16.133333;13.466666;7.900000
77516;PMS7003;68414;53.946;27.634;2023-03-17T00:22:43;16.283333;13.500000;7.933333
77516;PMS7003;68414;53.946;27.634;2023-03-17T00:23:47;14.000000;12.500000;7.933333
77516;PMS7003;68414;53.946;27.634;2023-03-17T00:24:43;17.316668;15.750000;8.183333
77516;PMS7003;68414;53.946;27.634;2023-03-17T00:25:43;14.200000;12.850000;7.500000
77516;PMS7003;68414;53.946;27.634;2023-03-17T00:26:43;12.983334;11.833333;7.400000
77516;PMS7003;68414;53.946;27.634;2023-03-17T00:27:43;13.883333;11.633333;6.850000
77516;PMS7003;68414;53.946;27.634;2023-03-17T00:28:43;12.916667;10.966666;7.916667
77516;PMS7003;68414;53.946;27.634;2023-03-17T00:29:43;14.250000;13.250000;7.266667
77516;PMS7003;68414;53.946;27.634;2023-03-17T00:30:43;11.233334;10.033334;6.566667
77516;PMS7003;68414;53.946;27.634;2023-03-17T00:31:43;16.033333;13.100000;8.100000
77516;PMS7003;68414;53.946;27.634;2023-03-17T00:32:43;12.083333;10.650000;7.033333
77516;PMS7003;68414;53.946;27.634;2023-03-17T00:33:44;15.433333;14.000000;7.650000
77516;PMS7003;68414;53.946;27.634;2023-03-17T00:34:43;12.066667;9.466666;6.500000
77516;PMS7003;68414;53.946;27.634;2023-03-17T00:35:43;17.566668;13.833333;7.766667
77516;PMS7003;68414;53.946;27.634;2023-03-17T00:36:46;12.100000;10.516666;5.833333
77516;PMS7003;68414;53.946;27.634;2023-03-17T00:37:43;14.516666;11.266666;6.666667
77516;PMS7003;68414;53.946;27.634;2023-03-17T00:38:44;12.466666;10.850000;7.100000
77516;PMS7003;68414;53.946;27.634;2023-03-17T00:39:43;14.133333;10.750000;7.100000
77516;PMS7003;68414;53.946;27.634;2023-03-17T00:40:43;11.700000;10.266666;7.033333
77516;PMS7003;68414;53.946;27.634;2023-03-17T00:41:44;9.666667;8.416667;6.050000
77516;PMS7003;68414;53.946;27.634;2023-03-17T00:42:43;9.616667;8.550000;5.166667
77516;PMS7003;68414;53.946;27.634;2023-03-17T00:43:43;11.216666;8.283334;5.583333
77516;PMS7003;68414;53.946;27.634;2023-03-17T00:44:43;10.450000;9.066667;5.900000
77516;PMS7003;68414;53.946;27.634;2023-03-17T00:45:43;10.350000;8.883333;6.000000
77516;PMS7003;68414;53.946;27.634;2023-03-17T00:46:43;11.350000;9.816667;6.050000
77516;PMS7003;68414;53.946;27.634;2023-03-17T00:47:44;8.483334;7.216667;4.750000
77516;PMS7003;68414;53.946;27.634;2023-03-17T00:48:44;9.533334;8.533334;5.533333
77516;PMS7003;68414;53.946;27.634;2023-03-17T00:49:43;9.200000;7.650000;5.383333
77516;PMS7003;68414;53.946;27.634;2023-03-17T00:50:44;8.000000;7.133333;4.916667
77516;PMS7003;68414;53.946;27.634;2023-03-17T00:51:44;9.683333;7.666667;5.466667
77516;PMS7003;68414;53.946;27.634;2023-03-17T00:52:44;7.583333;7.016667;5.200000
77516;PMS7003;68414;53.946;27.634;2023-03-17T00:53:43;8.183333;6.866667;4.766667
77516;PMS7003;68414;53.946;27.634;2023-03-17T00:54:43;8.383333;6.700000;4.833333
77516;PMS7003;68414;53.946;27.634;2023-03-17T00:55:44;7.383333;6.516667;4.666667
77516;PMS7003;68414;53.946;27.634;2023-03-17T00:56:45;8.366667;7.450000;4.516667
77516;PMS7003;68414;53.946;27.634;2023-03-17T00:57:43;7.466667;6.816667;4.666667
77516;PMS7003;68414;53.946;27.634;2023-03-17T00:58:44;8.183333;7.350000;4.533333
77516;PMS7003;68414;53.946;27.634;2023-03-17T00:59:43;9.233334;7.533333;5.433333
77516;PMS7003;68414;53.946;27.634;2023-03-17T01:00:43;8.100000;7.000000;4.200000
77516;PMS7003;68414;53.946;27.634;2023-03-17T01:01:43;7.266667;6.700000;4.700000
77516;PMS7003;68414;53.946;27.634;2023-03-17T01:02:43;9.016666;7.766667;5.033333
77516;PMS7003;68414;53.946;27.634;2023-03-17T01:03:43;8.600000;7.233333;4.800000
77516;PMS7003;68414;53.946;27.634;2023-03-17T01:04:43;7.016667;7.016667;5.083333
77516;PMS7003;68414;53.946;27.634;2023-03-17T01:05:43;7.800000;7.616667;5.250000
77516;PMS7003;68414;53.946;27.634;2023-03-17T01:06:43;7.050000;6.833333;4.550000
77516;PMS7003;68414;53.946;27.634;2023-03-17T01:07:44;9.000000;7.733333;4.983333
77516;PMS7003;68414;53.946;27.634;2023-03-17T01:08:43;7.800000;7.616667;4.533333
77516;PMS7003;68414;53.946;27.634;2023-03-17T01:09:43;5.766667;5.766667;4.000000
77516;PMS7003;68414;53.946;27.634;2023-03-17T01:10:43;8.583333;7.466667;4.933333
77516;PMS7003;68414;53.946;27.634;2023-03-17T01:11:43;8.783334;7.550000;4.583333
77516;PMS7003;68414;53.946;27.634;2023-03-17T01:12:43;7.116667;6.200000;4.266667
77516;PMS7003;68414;53.946;27.634;2023-03-17T01:13:43;7.616667;7.483333;4.783333
77516;PMS7003;68414;53.946;27.634;2023-03-17T01:14:43;7.950000;7.566667;4.800000
77516;PMS7003;68414;53.946;27.634;2023-03-17T01:15:46;9.116667;8.866667;4.783333
77516;PMS7003;68414;53.946;27.634;2023-03-17T01:16:43;8.850000;7.916667;5.016667
77516;PMS7003;68414;53.946;27.634;2023-03-17T01:17:43;6.916667;6.033333;4.583333
77516;PMS7003;68414;53.946;27.634;2023-03-17T01:18:43;7.283333;6.466667;4.600000
77516;PMS7003;68414;53.946;27.634;2023-03-17T01:19:44;9.516666;8.700000;5.583333
77516;PMS7003;68414;53.946;27.634;2023-03-17T01:20:43;8.716666;8.166667;5.316667
77516;PMS7003;68414;53.946;27.634;2023-03-17T01:21:43;9.166667;6.916667;4.000000
77516;PMS7003;68414;53.946;27.634;2023-03-17T01:22:43;8.116667;7.450000;4.416667
77516;PMS7003;68414;53.946;27.634;2023-03-17T01:23:43;7.850000;7.400000;4.366667
77516;PMS7003;68414;53.946;27.634;2023-03-17T01:24:43;8.233334;8.016666;5.300000
77516;PMS7003;68414;53.946;27.634;2023-03-17T01:25:43;9.566667;7.733333;4.950000
77516;PMS7003;68414;53.946;27.634;2023-03-17T01:26:43;6.916667;5.983333;4.166667
77516;PMS7003;68414;53.946;27.634;2023-03-17T01:27:44;9.916667;8.000000;5.033333
77516;PMS7003;68414;53.946;27.634;2023-03-17T01:28:43;7.250000;7.150000;4.600000
77516;PMS7003;68414;53.946;27.634;2023-03-17T01:29:43;7.966667;7.116667;4.516667
77516;PMS7003;68414;53.946;27.634;2023-03-17T01:30:43;7.283333;6.816667;4.266667
77516;PMS7003;68414;53.946;27.634;2023-03-17T01:31:43;8.233334;7.050000;4.483333
77516;PMS7003;68414;53.946;27.634;2023-03-17T01:32:43;8.566667;7.116667;4.533333
77516;PMS7003;68414;53.946;27.634;2023-03-17T01:33:43;8.650000;7.900000;4.266667
77516;PMS7003;68414;53.946;27.634;2023-03-17T01:34:43;7.383333;6.150000;4.783333
77516;PMS7003;68414;53.946;27.634;2023-03-17T01:35:43;8.566667;7.216667;5.100000
77516;PMS7003;68414;53.946;27.634;2023-03-17T01:36:43;7.466667;7.133333;5.100000
77516;PMS7003;68414;53.946;27.634;2023-03-17T01:37:43;7.566667;7.066667;4.300000
77516;PMS7003;68414;53.946;27.634;2023-03-17T01:38:43;8.866667;7.900000;5.500000
77516;PMS7003;68414;53.946;27.634;2023-03-17T01:39:43;8.033334;6.133333;3.833333
77516;PMS7003;68414;53.946;27.634;2023-03-17T01:40:46;8.500000;8.366667;5.316667
77516;PMS7003;68414;53.946;27.634;2023-03-17T01:41:43;8.366667;7.333333;4.433333
77516;PMS7003;68414;53.946;27.634;2023-03-17T01:42:47;9.083333;7.616667;5.316667
77516;PMS7003;68414;53.946;27.634;2023-03-17T01:43:43;9.466666;7.816667;5.150000
77516;PMS7003;68414;53.946;27.634;2023-03-17T01:46:44;7.966667;7.650000;4.650000
77516;PMS7003;68414;53.946;27.634;2023-03-17T01:47:43;7.516667;6.933333;4.433333
77516;PMS7003;68414;53.946;27.634;2023-03-17T01:49:43;7.716667;7.550000;4.750000
77516;PMS7003;68414;53.946;27.634;2023-03-17T01:50:45;8.900000;7.083333;4.816667
77516;PMS7003;68414;53.946;27.634;2023-03-17T01:52:43;8.633333;7.716667;4.866667
77516;PMS7003;68414;53.946;27.634;2023-03-17T01:53:44;6.433333;6.300000;3.983333
77516;PMS7003;68414;53.946;27.634;2023-03-17T01:55:29;8.400000;8.266666;5.066667
77516;PMS7003;68414;53.946;27.634;2023-03-17T01:55:44;9.766666;9.166667;5.500000
77516;PMS7003;68414;53.946;27.634;2023-03-17T01:56:44;7.050000;6.700000;4.666667
77516;PMS7003;68414;53.946;27.634;2023-03-17T01:57:48;8.200000;7.200000;4.750000
77516;PMS7003;68414;53.946;27.634;2023-03-17T01:58:45;7.066667;6.266667;4.400000
77516;PMS7003;68414;53.946;27.634;2023-03-17T01:59:49;9.033334;7.650000;5.266667
77516;PMS7003;68414;53.946;27.634;2023-03-17T02:00:43;9.533334;8.650000;5.466667
77516;PMS7003;68414;53.946;27.634;2023-03-17T02:01:46;9.883333;9.600000;6.333333
77516;PMS7003;68414;53.946;27.634;2023-03-17T02:02:45;10.216666;8.866667;5.850000
77516;PMS7003;68414;53.946;27.634;2023-03-17T02:03:43;10.566667;9.333333;5.766667
77516;PMS7003;68414;53.946;27.634;2023-03-17T02:04:43;11.116667;10.166667;6.133333
77516;PMS7003;68414;53.946;27.634;2023-03-17T02:05:43;9.450000;8.100000;5.433333
77516;PMS7003;68414;53.946;27.634;2023-03-17T02:06:43;9.450000;8.716666;6.133333
77516;PMS7003;68414;53.946;27.634;2023-03-17T02:07:43;9.283334;8.750000;5.916667
77516;PMS7003;68414;53.946;27.634;2023-03-17T02:08:43;8.216666;8.150000;5.016667
77516;PMS7003;68414;53.946;27.634;2023-03-17T02:09:43;10.950000;8.683333;5.650000
77516;PMS7003;68414;53.946;27.634;2023-03-17T02:10:44;7.600000;7.066667;4.916667
77516;PMS7003;68414;53.946;27.634;2023-03-17T02:11:43;8.783334;8.150000;5.016667
77516;PMS7003;68414;53.946;27.634;2023-03-17T02:12:44;8.016666;7.500000;5.416667
77516;PMS7003;68414;53.946;27.634;2023-03-17T02:13:43;7.300000;6.416667;4.450000
77516;PMS7003;68414;53.946;27.634;2023-03-17T02:14:43;8.800000;8.366667;5.350000
77516;PMS7003;68414;53.946;27.634;2023-03-17T02:15:48;9.700000;8.316667;5.750000
77516;PMS7003;68414;53.946;27.634;2023-03-17T02:16:44;9.333333;8.466666;5.350000
77516;PMS7003;68414;53.946;27.634;2023-03-17T02:17:43;9.450000;8.916667;5.900000
77516;PMS7003;68414;53.946;27.634;2023-03-17T02:18:43;10.400000;8.283334;5.433333
77516;PMS7003;68414;53.946;27.634;2023-03-17T02:19:43;8.616667;7.683333;4.516667
77516;PMS7003;68414;53.946;27.634;2023-03-17T02:21:45;8.966666;8.066667;5.083333
77516;PMS7003;68414;53.946;27.634;2023-03-17T02:22:45;8.833333;7.500000;5.450000
77516;PMS7003;68414;53.946;27.634;2023-03-17T02:23:43;8.833333;7.383333;5.383333
77516;PMS7003;68414;53.946;27.634;2023-03-17T02:24:46;9.250000;7.600000;4.716667
77516;PMS7003;68414;53.946;27.634;2023-03-17T02:25:44;9.433333;8.633333;6.083333
77516;PMS7003;68414;53.946;27.634;2023-03-17T02:26:43;12.783334;11.533334;6.366667
77516;PMS7003;68414;53.946;27.634;2023-03-17T02:27:45;11.133333;10.866667;6.416667
77516;PMS7003;68414;53.946;27.634;2023-03-17T02:28:43;11.816667;10.300000;6.500000
77516;PMS7003;68414;53.946;27.634;2023-03-17T02:29:44;13.966666;10.016666;6.300000
77516;PMS7003;68414;53.946;27.634;2023-03-17T02:30:43;10.366667;9.416667;6.200000
77516;PMS7003;68414;53.946;27.634;2023-03-17T02:31:43;9.900000;8.900000;5.200000
77516;PMS7003;68414;53.946;27.634;2023-03-17T02:32:43;13.433333;10.083333;5.933333
77516;PMS7003;68414;53.946;27.634;2023-03-17T02:33:43;9.516666;8.783334;5.900000
77516;PMS7003;68414;53.946;27.634;2023-03-17T02:34:44;9.250000;9.083333;6.183333
77516;PMS7003;68414;53.946;27.634;2023-03-17T02:35:43;11.666667;9.216666;6.000000
77516;PMS7003;68414;53.946;27.634;2023-03-17T02:36:43;10.883333;10.250000;5.900000
77516;PMS7003;68414;53.946;27.634;2023-03-17T02:37:43;11.200000;10.250000;6.566667
77516;PMS7003;68414;53.946;27.634;2023-03-17T02:38:43;10.800000;10.016666;6.250000
77516;PMS7003;68414;53.946;27.634;2023-03-17T02:39:43;7.483333;7.016667;4.883333
77516;PMS7003;68414;53.946;27.634;2023-03-17T02:40:43;7.783333;7.283333;4.883333
77516;PMS7003;68414;53.946;27.634;2023-03-17T02:41:43;10.516666;8.366667;5.516667
77516;PMS7003;68414;53.946;27.634;2023-03-17T02:42:43;8.866667;7.950000;5.116667
77516;PMS7003;68414;53.946;27.634;2023-03-17T02:43:43;12.233334;9.916667;6.050000
77516;PMS7003;68414;53.946;27.634;2023-03-17T02:44:43;11.900000;9.750000;6.083333
77516;PMS7003;68414;53.946;27.634;2023-03-17T02:45:43;13.583333;11.766666;5.716667
77516;PMS7003;68414;53.946;27.634;2023-03-17T02:46:43;9.400000;8.550000;6.183333
77516;PMS7003;68414;53.946;27.634;2023-03-17T02:47:43;11.216666;9.883333;5.950000
77516;PMS7003;68414;53.946;27.634;2023-03-17T02:48:44;10.050000;9.366667;6.316667
77516;PMS7003;68414;53.946;27.634;2023-03-17T02:49:43;8.533334;7.616667;4.600000
77516;PMS7003;68414;53.946;27.634;2023-03-17T02:50:43;9.000000;8.033334;4.750000
77516;PMS7003;68414;53.946;27.634;2023-03-17T02:51:43;9.083333;7.466667;4.150000
77516;PMS7003;68414;53.946;27.634;2023-03-17T02:52:43;7.616667;6.750000;4.700000
77516;PMS7003;68414;53.946;27.634;2023-03-17T02:53:43;11.800000;9.116667;4.950000
77516;PMS7003;68414;53.946;27.634;2023-03-17T02:54:43;8.483334;7.800000;5.183333
77516;PMS7003;68414;53.946;27.634;2023-03-17T02:55:43;7.950000;7.450000;5.283333
77516;PMS7003;68414;53.946;27.634;2023-03-17T02:56:43;10.966666;9.116667;5.550000
77516;PMS7003;68414;53.946;27.634;2023-03-17T02:57:43;9.500000;7.400000;4.700000
77516;PMS7003;68414;53.946;27.634;2023-03-17T02:58:43;8.366667;7.800000;5.616667
77516;PMS7003;68414;53.946;27.634;2023-03-17T02:59:43;9.200000;8.183333;4.766667
77516;PMS7003;68414;53.946;27.634;2023-03-17T03:00:43;8.883333;8.633333;5.400000
77516;PMS7003;68414;53.946;27.634;2023-03-17T03:01:43;13.133333;12.333333;6.633333
77516;PMS7003;68414;53.946;27.634;2023-03-17T03:02:43;10.016666;9.016666;5.816667
77516;PMS7003;68414;53.946;27.634;2023-03-17T03:03:43;9.000000;8.400000;5.816667
77516;PMS7003;68414;53.946;27.634;2023-03-17T03:04:43;9.533334;8.833333;5.616667
77516;PMS7003;68414;53.946;27.634;2023-03-17T03:05:43;13.283334;10.800000;6.483333
77516;PMS7003;68414;53.946;27.634;2023-03-17T03:06:43;12.650000;10.150000;6.400000
77516;PMS7003;68414;53.946;27.634;2023-03-17T03:07:43;11.016666;10.383333;6.133333
77516;PMS7003;68414;53.946;27.634;2023-03-17T03:08:43;12.683333;12.216666;7.516667
77516;PMS7003;68414;53.946;27.634;2023-03-17T03:09:43;12.316667;10.433333;7.200000
77516;PMS7003;68414;53.946;27.634;2023-03-17T03:10:43;13.366667;11.900000;7.066667
77516;PMS7003;68414;53.946;27.634;2023-03-17T03:11:43;12.983334;11.950000;7.600000
77516;PMS7003;68414;53.946;27.634;2023-03-17T03:12:43;11.683333;11.616667;7.400000
77516;PMS7003;68414;53.946;27.634;2023-03-17T03:13:43;12.600000;11.416667;7.283333
77516;PMS7003;68414;53.946;27.634;2023-03-17T03:14:43;11.100000;10.433333;6.766667
77516;PMS7003;68414;53.946;27.634;2023-03-17T03:15:43;13.566667;12.416667;7.050000
77516;PMS7003;68414;53.946;27.634;2023-03-17T03:16:43;12.916667;11.383333;6.483333
77516;PMS7003;68414;53.946;27.634;2023-03-17T03:17:43;12.733334;12.050000;6.416667
77516;PMS7003;68414;53.946;27.634;2023-03-17T03:18:43;9.883333;9.366667;5.716667
77516;PMS7003;68414;53.946;27.634;2023-03-17T03:19:43;11.416667;9.600000;5.700000
77516;PMS7003;68414;53.946;27.634;2023-03-17T03:20:43;13.633333;12.033334;7.733333
77516;PMS7003;68414;53.946;27.634;2023-03-17T03:21:43;17.950001;17.683332;12.116667
77516;PMS7003;68414;53.946;27.634;2023-03-17T03:22:43;15.666667;12.433333;8.083333
77516;PMS7003;68414;53.946;27.634;2023-03-17T03:23:43;12.483334;9.600000;6.050000
77516;PMS7003;68414;53.946;27.634;2023-03-17T03:24:43;11.300000;9.716666;5.366667
77516;PMS7003;68414;53.946;27.634;2023-03-17T03:25:43;10.100000;9.116667;5.416667
77516;PMS7003;68414;53.946;27.634;2023-03-17T03:26:43;11.600000;10.533334;6.350000
77516;PMS7003;68414;53.946;27.634;2023-03-17T03:27:43;9.700000;8.883333;5.316667
77516;PMS7003;68414;53.946;27.634;2023-03-17T03:28:43;9.183333;8.283334;5.883333
77516;PMS7003;68414;53.946;27.634;2023-03-17T03:29:43;14.900000;12.933333;8.583333
77516;PMS7003;68414;53.946;27.634;2023-03-17T03:30:43;15.516666;13.600000;8.916667
77516;PMS7003;68414;53.946;27.634;2023-03-17T03:31:43;15.250000;13.883333;8.150000
77516;PMS7003;68414;53.946;27.634;2023-03-17T03:32:43;15.466666;13.983334;8.733334
77516;PMS7003;68414;53.946;27.634;2023-03-17T03:33:43;13.266666;12.000000;7.850000
77516;PMS7003;68414;53.946;27.634;2023-03-17T03:34:43;13.516666;12.983334;8.250000
77516;PMS7003;68414;53.946;27.634;2023-03-17T03:35:43;16.250000;15.516666;10.233334
77516;PMS7003;68414;53.946;27.634;2023-03-17T03:36:43;15.216666;14.450000;10.033334
77516;PMS7003;68414;53.946;27.634;2023-03-17T03:37:43;15.283334;14.516666;9.250000
77516;PMS7003;68414;53.946;27.634;2023-03-17T03:38:43;16.283333;14.500000;10.400000
77516;PMS7003;68414;53.946;27.634;2023-03-17T03:39:43;14.750000;13.233334;8.333333
77516;PMS7003;68414;53.946;27.634;2023-03-17T03:40:43;15.800000;13.683333;8.633333
77516;PMS7003;68414;53.946;27.634;2023-03-17T03:41:43;11.383333;11.033334;6.933333
77516;PMS7003;68414;53.946;27.634;2023-03-17T03:42:43;13.650000;12.033334;7.383333
77516;PMS7003;68414;53.946;27.634;2023-03-17T03:43:43;11.550000;10.883333;7.683333
77516;PMS7003;68414;53.946;27.634;2023-03-17T03:44:43;11.333333;11.033334;7.283333
77516;PMS7003;68414;53.946;27.634;2023-03-17T03:45:43;12.233334;9.950000;6.416667
77516;PMS7003;68414;53.946;27.634;2023-03-17T03:46:43;15.533334;14.450000;8.266666
77516;PMS7003;68414;53.946;27.634;2023-03-17T03:47:43;17.333334;15.783334;8.816667
77516;PMS7003;68414;53.946;27.634;2023-03-17T03:48:43;13.600000;12.916667;7.183333
77516;PMS7003;68414;53.946;27.634;2023-03-17T03:49:43;12.366667;11.550000;7.133333
77516;PMS7003;68414;53.946;27.634;2023-03-17T03:50:43;11.433333;9.766666;5.883333
77516;PMS7003;68414;53.946;27.634;2023-03-17T03:51:43;9.750000;8.683333;6.066667
77516;PMS7003;68414;53.946;27.634;2023-03-17T03:52:43;11.116667;10.883333;6.233333
77516;PMS7003;68414;53.946;27.634;2023-03-17T03:53:43;9.516666;8.233334;5.583333
77516;PMS7003;68414;53.946;27.634;2023-03-17T03:54:43;8.983334;7.716667;5.033333
77516;PMS7003;68414;53.946;27.634;2023-03-17T03:55:43;8.100000;8.100000;5.366667
77516;PMS7003;68414;53.946;27.634;2023-03-17T03:56:43;8.816667;8.450000;5.850000
77516;PMS7003;68414;53.946;27.634;2023-03-17T03:57:43;10.650000;9.150000;6.016667
77516;PMS7003;68414;53.946;27.634;2023-03-17T03:58:43;11.150000;9.116667;6.516667
77516;PMS7003;68414;53.946;27.634;2023-03-17T03:59:43;10.666667;9.900000;6.266667
77516;PMS7003;68414;53.946;27.634;2023-03-17T04:00:43;11.100000;9.750000;6.283333
77516;PMS7003;68414;53.946;27.634;2023-03-17T04:01:43;9.216666;8.133333;5.316667
77516;PMS7003;68414;53.946;27.634;2023-03-17T04:02:43;9.050000;8.350000;5.533333
77516;PMS7003;68414;53.946;27.634;2023-03-17T04:03:43;12.333333;10.066667;6.400000
77516;PMS7003;68414;53.946;27.634;2023-03-17T04:04:43;10.583333;9.450000;6.016667
77516;PMS7003;68414;53.946;27.634;2023-03-17T04:05:43;12.916667;10.683333;6.616667
77516;PMS7003;68414;53.946;27.634;2023-03-17T04:06:43;10.683333;9.766666;6.283333
77516;PMS7003;68414;53.946;27.634;2023-03-17T04:07:43;9.550000;9.066667;5.300000
77516;PMS7003;68414;53.946;27.634;2023-03-17T04:08:43;9.483334;9.016666;5.983333
77516;PMS7003;68414;53.946;27.634;2023-03-17T04:09:43;8.750000;8.750000;5.333333
77516;PMS7003;68414;53.946;27.634;2023-03-17T04:10:43;9.050000;8.566667;5.816667
77516;PMS7003;68414;53.946;27.634;2023-03-17T04:11:43;10.500000;8.550000;6.066667
77516;PMS7003;68414;53.946;27.634;2023-03-17T04:12:43;11.100000;10.766666;6.066667
77516;PMS7003;68414;53.946;27.634;2023-03-17T04:13:43;11.800000;11.116667;6.550000
77516;PMS7003;68414;53.946;27.634;2023-03-17T04:14:43;10.200000;9.833333;6.400000
77516;PMS7003;68414;53.946;27.634;2023-03-17T04:15:43;19.299999;16.966667;10.833333
77516;PMS7003;68414;53.946;27.634;2023-03-17T04:16:43;16.033333;14.916667;9.350000
77516;PMS7003;68414;53.946;27.634;2023-03-17T04:17:43;18.383333;16.766666;10.233334
77516;PMS7003;68414;53.946;27.634;2023-03-17T04:18:43;18.549999;16.049999;10.233334
77516;PMS7003;68414;53.946;27.634;2023-03-17T04:19:43;16.500000;14.566667;8.850000
77516;PMS7003;68414;53.946;27.634;2023-03-17T04:20:43;13.916667;12.750000;8.216666
77516;PMS7003;68414;53.946;27.634;2023-03-17T04:21:43;15.966666;14.050000;9.200000
77516;PMS7003;68414;53.946;27.634;2023-03-17T04:22:43;16.350000;15.750000;9.916667
77516;PMS7003;68414;53.946;27.634;2023-03-17T04:23:43;19.200001;16.450001;12.566667
77516;PMS7003;68414;53.946;27.634;2023-03-17T04:24:43;20.233334;18.466667;12.183333
77516;PMS7003;68414;53.946;27.634;2023-03-17T04:25:43;17.799999;16.799999;11.550000
77516;PMS7003;68414;53.946;27.634;2023-03-17T04:26:43;13.883333;13.083333;8.416667
77516;PMS7003;68414;53.946;27.634;2023-03-17T04:27:43;12.783334;12.666667;8.883333
77516;PMS7003;68414;53.946;27.634;2023-03-17T04:28:43;16.433332;15.533334;9.516666
77516;PMS7003;68414;53.946;27.634;2023-03-17T04:29:43;14.500000;12.666667;8.150000
77516;PMS7003;68414;53.946;27.634;2023-03-17T04:30:43;15.866667;14.816667;9.133333
77516;PMS7003;68414;53.946;27.634;2023-03-17T04:31:43;10.900000;9.533334;6.200000
77516;PMS7003;68414;53.946;27.634;2023-03-17T04:32:43;10.316667;8.783334;6.516667
77516;PMS7003;68414;53.946;27.634;2023-03-17T04:33:43;11.716666;10.733334;6.366667
77516;PMS7003;68414;53.946;27.634;2023-03-17T04:34:43;8.883333;8.200000;5.850000
77516;PMS7003;68414;53.946;27.634;2023-03-17T04:35:43;13.116667;12.366667;6.683333
77516;PMS7003;68414;53.946;27.634;2023-03-17T04:36:45;14.816667;11.933333;8.116667
77516;PMS7003;68414;53.946;27.634;2023-03-17T04:37:43;15.266666;13.566667;8.250000
77516;PMS7003;68414;53.946;27.634;2023-03-17T04:38:43;13.716666;11.700000;6.500000
77516;PMS7003;68414;53.946;27.634;2023-03-17T04:39:43;10.616667;8.483334;5.916667
77516;PMS7003;68414;53.946;27.634;2023-03-17T04:40:43;10.116667;9.616667;6.166667
77516;PMS7003;68414;53.946;27.634;2023-03-17T04:41:43;10.416667;9.316667;6.633333
77516;PMS7003;68414;53.946;27.634;2023-03-17T04:42:43;9.600000;8.683333;6.000000
77516;PMS7003;68414;53.946;27.634;2023-03-17T04:43:43;10.133333;8.016666;5.350000
77516;PMS7003;68414;53.946;27.634;2023-03-17T04:44:43;9.200000;7.616667;5.116667
77516;PMS7003;68414;53.946;27.634;2023-03-17T04:45:43;13.200000;10.883333;6.816667
77516;PMS7003;68414;53.946;27.634;2023-03-17T04:46:43;12.766666;10.683333;6.816667
77516;PMS7003;68414;53.946;27.634;2023-03-17T04:47:43;10.633333;9.166667;5.766667
77516;PMS7003;68414;53.946;27.634;2023-03-17T04:48:43;8.450000;7.766667;5.366667
77516;PMS7003;68414;53.946;27.634;2023-03-17T04:49:43;10.066667;9.383333;5.716667
77516;PMS7003;68414;53.946;27.634;2023-03-17T04:50:43;8.766666;7.700000;5.633333
77516;PMS7003;68414;53.946;27.634;2023-03-17T04:51:43;10.000000;8.516666;5.950000
77516;PMS7003;68414;53.946;27.634;2023-03-17T04:52:43;10.250000;9.183333;6.016667
77516;PMS7003;68414;53.946;27.634;2023-03-17T04:53:43;9.166667;9.166667;6.116667
77516;PMS7003;68414;53.946;27.634;2023-03-17T04:54:43;10.900000;9.466666;5.550000
77516;PMS7003;68414;53.946;27.634;2023-03-17T04:55:43;11.000000;9.533334;6.233333
77516;PMS7003;68414;53.946;27.634;2023-03-17T04:56:43;9.466666;8.766666;5.966667
77516;PMS7003;68414;53.946;27.634;2023-03-17T04:57:43;8.416667;7.866667;5.783333